sensor_id;sensor_type;location;lat;lon;timestamp;P1;durP1;ratioP1;P2;durP2;ratioP2
9986;SDS011;5033;46.310;11.214;2024-03-23T00:54:17;8.63;;;7.72;;
9986;SDS011;5033;46.310;11.214;2024-03-23T00:56:43;6.72;;;6.13;;
9986;SDS011;5033;46.310;11.214;2024-03-23T00:59:10;7.90;;;7.20;;
9986;SDS011;5033;46.310;11.214;2024-03-23T01:01:36;7.75;;;6.90;;
9986;SDS011;5033;46.310;11.214;2024-03-23T01:04:03;8.40;;;7.57;;
9986;SDS011;5033;46.310;11.214;2024-03-23T01:06:29;7.10;;;6.50;;
9986;SDS011;5033;46.310;11.214;2024-03-23T01:08:56;6.65;;;6.05;;
9986;SDS011;5033;46.310;11.214;2024-03-23T01:11:24;7.50;;;6.78;;
9986;SDS011;5033;46.310;11.214;2024-03-23T01:13:53;7.93;;;7.13;;
9986;SDS011;5033;46.310;11.214;2024-03-23T01:16:21;9.38;;;8.43;;
9986;SDS011;5033;46.310;11.214;2024-03-23T01:18:48;7.70;;;7.00;;
9986;SDS011;5033;46.310;11.214;2024-03-23T01:21:13;7.57;;;6.88;;
9986;SDS011;5033;46.310;11.214;2024-03-23T01:23:40;7.65;;;6.95;;
9986;SDS011;5033;46.310;11.214;2024-03-23T01:26:07;8.07;;;7.28;;
9986;SDS011;5033;46.310;11.214;2024-03-23T01:28:35;6.95;;;6.25;;
9986;SDS011;5033;46.310;11.214;2024-03-23T01:31:01;7.72;;;6.63;;
9986;SDS011;5033;46.310;11.214;2024-03-23T01:33:28;6.82;;;6.15;;
9986;SDS011;5033;46.310;11.214;2024-03-23T01:35:54;6.55;;;5.95;;
9986;SDS011;5033;46.310;11.214;2024-03-23T01:38:21;6.10;;;5.50;;
9986;SDS011;5033;46.310;11.214;2024-03-23T01:40:47;6.70;;;6.10;;
9986;SDS011;5033;46.310;11.214;2024-03-23T01:43:14;8.05;;;6.57;;
9986;SDS011;5033;46.310;11.214;2024-03-23T01:45:42;7.13;;;6.43;;
9986;SDS011;5033;46.310;11.214;2024-03-23T01:48:08;8.02;;;6.00;;
9986;SDS011;5033;46.310;11.214;2024-03-23T01:50:37;9.02;;;7.15;;
9986;SDS011;5033;46.310;11.214;2024-03-23T01:53:04;7.57;;;6.45;;
9986;SDS011;5033;46.310;11.214;2024-03-23T01:55:31;7.57;;;6.85;;
9986;SDS011;5033;46.310;11.214;2024-03-23T01:57:58;7.35;;;6.65;;
9986;SDS011;5033;46.310;11.214;2024-03-23T02:00:24;7.10;;;6.40;;
9986;SDS011;5033;46.310;11.214;2024-03-23T02:02:54;8.60;;;7.07;;
9986;SDS011;5033;46.310;11.214;2024-03-23T02:05:20;6.68;;;6.07;;
9986;SDS011;5033;46.310;11.214;2024-03-23T02:07:48;7.05;;;6.35;;
9986;SDS011;5033;46.310;11.214;2024-03-23T02:10:14;7.25;;;6.55;;
9986;SDS011;5033;46.310;11.214;2024-03-23T02:12:41;9.02;;;8.13;;
9986;SDS011;5033;46.310;11.214;2024-03-23T02:15:07;8.02;;;6.95;;
9986;SDS011;5033;46.310;11.214;2024-03-23T02:17:35;7.85;;;7.15;;
9986;SDS011;5033;46.310;11.214;2024-03-23T02:20:02;6.97;;;6.13;;
9986;SDS011;5033;46.310;11.214;2024-03-23T02:22:35;7.40;;;6.70;;
9986;SDS011;5033;46.310;11.214;2024-03-23T02:25:04;7.45;;;6.65;;
9986;SDS011;5033;46.310;11.214;2024-03-23T02:27:31;7.05;;;6.38;;
9986;SDS011;5033;46.310;11.214;2024-03-23T02:29:58;7.72;;;6.97;;
9986;SDS011;5033;46.310;11.214;2024-03-23T02:32:25;7.90;;;7.13;;
9986;SDS011;5033;46.310;11.214;2024-03-23T02:34:51;7.35;;;6.65;;
9986;SDS011;5033;46.310;11.214;2024-03-23T02:37:18;8.02;;;7.25;;
9986;SDS011;5033;46.310;11.214;2024-03-23T02:39:44;8.40;;;7.55;;
9986;SDS011;5033;46.310;11.214;2024-03-23T02:42:12;7.30;;;6.60;;
9986;SDS011;5033;46.310;11.214;2024-03-23T02:44:38;7.78;;;6.93;;
9986;SDS011;5033;46.310;11.214;2024-03-23T02:47:05;7.45;;;6.75;;
9986;SDS011;5033;46.310;11.214;2024-03-23T02:49:31;7.47;;;6.75;;
9986;SDS011;5033;46.310;11.214;2024-03-23T02:51:58;7.78;;;7.03;;
9986;SDS011;5033;46.310;11.214;2024-03-23T02:54:24;7.18;;;6.47;;
9986;SDS011;5033;46.310;11.214;2024-03-23T02:56:51;8.07;;;7.00;;
9986;SDS011;5033;46.310;11.214;2024-03-23T02:59:18;8.10;;;7.20;;
9986;SDS011;5033;46.310;11.214;2024-03-23T03:01:45;7.88;;;7.07;;
9986;SDS011;5033;46.310;11.214;2024-03-23T03:04:11;8.68;;;7.75;;
9986;SDS011;5033;46.310;11.214;2024-03-23T03:06:38;7.70;;;6.90;;
9986;SDS011;5033;46.310;11.214;2024-03-23T03:09:04;7.40;;;6.70;;
9986;SDS011;5033;46.310;11.214;2024-03-23T03:11:31;9.40;;;8.05;;
9986;SDS011;5033;46.310;11.214;2024-03-23T03:13:58;7.53;;;6.82;;
9986;SDS011;5033;46.310;11.214;2024-03-23T03:16:26;7.95;;;7.15;;
9986;SDS011;5033;46.310;11.214;2024-03-23T03:18:52;7.68;;;6.90;;
9986;SDS011;5033;46.310;11.214;2024-03-23T03:21:19;7.53;;;6.72;;
9986;SDS011;5033;46.310;11.214;2024-03-23T03:23:45;8.65;;;7.75;;
9986;SDS011;5033;46.310;11.214;2024-03-23T03:26:15;8.70;;;7.55;;
9986;SDS011;5033;46.310;11.214;2024-03-23T03:28:41;7.97;;;7.18;;
9986;SDS011;5033;46.310;11.214;2024-03-23T03:31:09;7.38;;;6.68;;
9986;SDS011;5033;46.310;11.214;2024-03-23T03:33:36;7.18;;;6.47;;
9986;SDS011;5033;46.310;11.214;2024-03-23T03:36:03;7.00;;;6.40;;
9986;SDS011;5033;46.310;11.214;2024-03-23T03:38:29;7.28;;;6.57;;
9986;SDS011;5033;46.310;11.214;2024-03-23T03:40:56;7.97;;;7.18;;
9986;SDS011;5033;46.310;11.214;2024-03-23T03:43:24;7.82;;;7.03;;
9986;SDS011;5033;46.310;11.214;2024-03-23T03:45:51;7.35;;;6.65;;
9986;SDS011;5033;46.310;11.214;2024-03-23T03:48:17;6.32;;;5.72;;
9986;SDS011;5033;46.310;11.214;2024-03-23T03:50:46;6.97;;;6.28;;
9986;SDS011;5033;46.310;11.214;2024-03-23T03:53:12;6.75;;;6.15;;
9986;SDS011;5033;46.310;11.214;2024-03-23T03:55:39;6.53;;;5.93;;
9986;SDS011;5033;46.310;11.214;2024-03-23T03:58:05;6.20;;;5.68;;
9986;SDS011;5033;46.310;11.214;2024-03-23T04:00:31;6.25;;;5.72;;
9986;SDS011;5033;46.310;11.214;2024-03-23T04:02:57;6.80;;;6.15;;
9986;SDS011;5033;46.310;11.214;2024-03-23T04:05:24;7.15;;;6.45;;
9986;SDS011;5033;46.310;11.214;2024-03-23T04:07:52;7.03;;;6.40;;
9986;SDS011;5033;46.310;11.214;2024-03-23T04:10:19;6.30;;;5.72;;
9986;SDS011;5033;46.310;11.214;2024-03-23T04:12:45;6.20;;;5.68;;
9986;SDS011;5033;46.310;11.214;2024-03-23T04:15:12;6.40;;;5.80;;
9986;SDS011;5033;46.310;11.214;2024-03-23T04:17:38;6.00;;;5.50;;
9986;SDS011;5033;46.310;11.214;2024-03-23T04:20:08;7.00;;;6.40;;
9986;SDS011;5033;46.310;11.214;2024-03-23T04:22:36;6.63;;;6.03;;
9986;SDS011;5033;46.310;11.214;2024-03-23T04:25:05;6.22;;;5.63;;
9986;SDS011;5033;46.310;11.214;2024-03-23T04:27:31;6.30;;;5.70;;
9986;SDS011;5033;46.310;11.214;2024-03-23T04:29:58;5.80;;;5.30;;
9986;SDS011;5033;46.310;11.214;2024-03-23T04:32:26;7.65;;;6.95;;
9986;SDS011;5033;46.310;11.214;2024-03-23T04:34:54;7.45;;;6.70;;
9986;SDS011;5033;46.310;11.214;2024-03-23T04:37:21;8.25;;;7.25;;
9986;SDS011;5033;46.310;11.214;2024-03-23T04:39:48;7.10;;;6.50;;
9986;SDS011;5033;46.310;11.214;2024-03-23T04:42:17;6.10;;;5.60;;
9986;SDS011;5033;46.310;11.214;2024-03-23T04:44:44;5.82;;;5.32;;
9986;SDS011;5033;46.310;11.214;2024-03-23T04:47:11;6.68;;;6.07;;
9986;SDS011;5033;46.310;11.214;2024-03-23T04:49:38;6.97;;;6.38;;
9986;SDS011;5033;46.310;11.214;2024-03-23T04:52:05;7.38;;;6.68;;
9986;SDS011;5033;46.310;11.214;2024-03-23T04:54:32;7.95;;;7.15;;
9986;SDS011;5033;46.310;11.214;2024-03-23T04:56:59;7.38;;;6.68;;
9986;SDS011;5033;46.310;11.214;2024-03-23T04:59:26;7.32;;;6.63;;
9986;SDS011;5033;46.310;11.214;2024-03-23T05:01:53;6.90;;;6.30;;
9986;SDS011;5033;46.310;11.214;2024-03-23T05:04:20;7.28;;;6.57;;
9986;SDS011;5033;46.310;11.214;2024-03-23T05:06:46;8.25;;;7.45;;
9986;SDS011;5033;46.310;11.214;2024-03-23T05:09:13;7.88;;;7.15;;
9986;SDS011;5033;46.310;11.214;2024-03-23T05:11:39;7.05;;;6.35;;
9986;SDS011;5033;46.310;11.214;2024-03-23T05:14:06;8.40;;;7.47;;
9986;SDS011;5033;46.310;11.214;2024-03-23T05:16:34;8.68;;;7.88;;
9986;SDS011;5033;46.310;11.214;2024-03-23T05:19:01;8.32;;;7.53;;
9986;SDS011;5033;46.310;11.214;2024-03-23T05:21:27;7.95;;;7.22;;
9986;SDS011;5033;46.310;11.214;2024-03-23T05:23:54;7.70;;;7.03;;
9986;SDS011;5033;46.310;11.214;2024-03-23T05:26:23;6.88;;;6.20;;
9986;SDS011;5033;46.310;11.214;2024-03-23T05:28:50;7.45;;;6.75;;
9986;SDS011;5033;46.310;11.214;2024-03-23T05:31:22;8.40;;;7.07;;
9986;SDS011;5033;46.310;11.214;2024-03-23T05:33:51;7.07;;;6.47;;
9986;SDS011;5033;46.310;11.214;2024-03-23T05:36:17;8.05;;;7.25;;
9986;SDS011;5033;46.310;11.214;2024-03-23T05:38:44;9.70;;;7.88;;
9986;SDS011;5033;46.310;11.214;2024-03-23T05:41:10;8.02;;;7.22;;
9986;SDS011;5033;46.310;11.214;2024-03-23T05:43:37;8.05;;;7.35;;
9986;SDS011;5033;46.310;11.214;2024-03-23T05:46:03;8.02;;;7.25;;
9986;SDS011;5033;46.310;11.214;2024-03-23T05:48:30;6.93;;;6.18;;
9986;SDS011;5033;46.310;11.214;2024-03-23T05:50:58;7.82;;;7.13;;
9986;SDS011;5033;46.310;11.214;2024-03-23T05:53:26;7.50;;;6.80;;
9986;SDS011;5033;46.310;11.214;2024-03-23T05:56:00;8.52;;;7.68;;
9986;SDS011;5033;46.310;11.214;2024-03-23T05:58:29;7.72;;;7.03;;
9986;SDS011;5033;46.310;11.214;2024-03-23T06:00:59;7.90;;;6.75;;
9986;SDS011;5033;46.310;11.214;2024-03-23T06:03:27;8.05;;;7.28;;
9986;SDS011;5033;46.310;11.214;2024-03-23T06:05:54;10.77;;;8.60;;
9986;SDS011;5033;46.310;11.214;2024-03-23T06:08:23;8.50;;;7.70;;
9986;SDS011;5033;46.310;11.214;2024-03-23T06:10:49;8.20;;;7.40;;
9986;SDS011;5033;46.310;11.214;2024-03-23T06:13:16;8.13;;;7.30;;
9986;SDS011;5033;46.310;11.214;2024-03-23T06:15:43;7.32;;;6.47;;
9986;SDS011;5033;46.310;11.214;2024-03-23T06:18:11;7.32;;;6.63;;
9986;SDS011;5033;46.310;11.214;2024-03-23T06:20:37;7.30;;;6.60;;
9986;SDS011;5033;46.310;11.214;2024-03-23T06:23:04;7.75;;;6.95;;
9986;SDS011;5033;46.310;11.214;2024-03-23T06:25:31;8.63;;;7.80;;
9986;SDS011;5033;46.310;11.214;2024-03-23T06:27:58;7.43;;;6.68;;
9986;SDS011;5033;46.310;11.214;2024-03-23T06:30:26;6.00;;;5.50;;
9986;SDS011;5033;46.310;11.214;2024-03-23T06:32:54;7.93;;;6.15;;
9986;SDS011;5033;46.310;11.214;2024-03-23T06:35:20;7.60;;;6.90;;
9986;SDS011;5033;46.310;11.214;2024-03-23T06:37:47;7.25;;;6.63;;
9986;SDS011;5033;46.310;11.214;2024-03-23T06:40:13;7.78;;;6.97;;
9986;SDS011;5033;46.310;11.214;2024-03-23T06:42:42;7.30;;;6.60;;
9986;SDS011;5033;46.310;11.214;2024-03-23T06:45:08;7.55;;;6.85;;
9986;SDS011;5033;46.310;11.214;2024-03-23T06:47:35;6.95;;;6.25;;
9986;SDS011;5033;46.310;11.214;2024-03-23T06:50:02;7.38;;;6.63;;
9986;SDS011;5033;46.310;11.214;2024-03-23T06:52:30;7.35;;;6.65;;
9986;SDS011;5033;46.310;11.214;2024-03-23T06:54:56;7.15;;;6.43;;
9986;SDS011;5033;46.310;11.214;2024-03-23T06:57:23;7.85;;;7.05;;
9986;SDS011;5033;46.310;11.214;2024-03-23T06:59:51;8.63;;;6.30;;
9986;SDS011;5033;46.310;11.214;2024-03-23T07:02:17;6.78;;;6.18;;
9986;SDS011;5033;46.310;11.214;2024-03-23T07:04:43;6.88;;;6.25;;
9986;SDS011;5033;46.310;11.214;2024-03-23T07:07:11;6.32;;;5.82;;
9986;SDS011;5033;46.310;11.214;2024-03-23T07:09:37;6.32;;;5.78;;
9986;SDS011;5033;46.310;11.214;2024-03-23T07:12:04;6.72;;;6.13;;
9986;SDS011;5033;46.310;11.214;2024-03-23T07:14:30;6.38;;;5.63;;
9986;SDS011;5033;46.310;11.214;2024-03-23T07:16:59;7.35;;;6.75;;
9986;SDS011;5033;46.310;11.214;2024-03-23T07:19:25;6.68;;;6.07;;
9986;SDS011;5033;46.310;11.214;2024-03-23T07:21:52;6.80;;;6.20;;
9986;SDS011;5033;46.310;11.214;2024-03-23T07:24:18;7.55;;;6.85;;
9986;SDS011;5033;46.310;11.214;2024-03-23T07:26:45;6.75;;;6.15;;
9986;SDS011;5033;46.310;11.214;2024-03-23T07:29:12;6.35;;;5.75;;
9986;SDS011;5033;46.310;11.214;2024-03-23T07:31:39;5.53;;;5.03;;
9986;SDS011;5033;46.310;11.214;2024-03-23T07:34:07;5.57;;;5.07;;
9986;SDS011;5033;46.310;11.214;2024-03-23T07:36:34;5.15;;;4.75;;
9986;SDS011;5033;46.310;11.214;2024-03-23T07:39:00;5.20;;;4.70;;
9986;SDS011;5033;46.310;11.214;2024-03-23T07:41:29;4.97;;;4.50;;
9986;SDS011;5033;46.310;11.214;2024-03-23T07:43:55;5.53;;;5.03;;
9986;SDS011;5033;46.310;11.214;2024-03-23T07:46:22;4.90;;;4.50;;
9986;SDS011;5033;46.310;11.214;2024-03-23T07:48:50;4.53;;;4.20;;
9986;SDS011;5033;46.310;11.214;2024-03-23T07:51:20;6.18;;;5.32;;
9986;SDS011;5033;46.310;11.214;2024-03-23T07:53:47;8.02;;;5.57;;
9986;SDS011;5033;46.310;11.214;2024-03-23T07:56:15;5.85;;;5.35;;
9986;SDS011;5033;46.310;11.214;2024-03-23T07:58:43;6.80;;;6.07;;
9986;SDS011;5033;46.310;11.214;2024-03-23T08:01:10;6.13;;;5.63;;
9986;SDS011;5033;46.310;11.214;2024-03-23T08:03:37;5.93;;;5.43;;
9986;SDS011;5033;46.310;11.214;2024-03-23T08:06:08;6.55;;;5.80;;
9986;SDS011;5033;46.310;11.214;2024-03-23T08:08:36;7.30;;;6.55;;
9986;SDS011;5033;46.310;11.214;2024-03-23T08:11:04;7.57;;;5.75;;
9986;SDS011;5033;46.310;11.214;2024-03-23T08:13:31;5.70;;;5.10;;
9986;SDS011;5033;46.310;11.214;2024-03-23T08:15:58;5.45;;;4.95;;
9986;SDS011;5033;46.310;11.214;2024-03-23T08:18:24;5.40;;;4.70;;
9986;SDS011;5033;46.310;11.214;2024-03-23T08:20:55;4.28;;;3.88;;
9986;SDS011;5033;46.310;11.214;2024-03-23T08:23:22;4.70;;;4.28;;
9986;SDS011;5033;46.310;11.214;2024-03-23T08:25:50;4.82;;;4.38;;
9986;SDS011;5033;46.310;11.214;2024-03-23T08:28:17;4.78;;;4.28;;
9986;SDS011;5033;46.310;11.214;2024-03-23T08:30:43;5.10;;;4.60;;
9986;SDS011;5033;46.310;11.214;2024-03-23T08:33:10;4.97;;;4.47;;
9986;SDS011;5033;46.310;11.214;2024-03-23T08:35:36;4.90;;;4.43;;
9986;SDS011;5033;46.310;11.214;2024-03-23T08:38:03;6.90;;;4.85;;
9986;SDS011;5033;46.310;11.214;2024-03-23T08:40:29;5.68;;;5.18;;
9986;SDS011;5033;46.310;11.214;2024-03-23T08:42:57;7.07;;;6.00;;
9986;SDS011;5033;46.310;11.214;2024-03-23T08:45:24;6.15;;;5.55;;
9986;SDS011;5033;46.310;11.214;2024-03-23T08:47:51;6.00;;;5.50;;
9986;SDS011;5033;46.310;11.214;2024-03-23T08:50:17;5.88;;;5.28;;
9986;SDS011;5033;46.310;11.214;2024-03-23T08:52:44;6.32;;;5.70;;
9986;SDS011;5033;46.310;11.214;2024-03-23T08:55:10;6.10;;;5.47;;
9986;SDS011;5033;46.310;11.214;2024-03-23T08:57:37;7.68;;;6.38;;
9986;SDS011;5033;46.310;11.214;2024-03-23T09:00:05;6.72;;;5.75;;
9986;SDS011;5033;46.310;11.214;2024-03-23T09:02:34;5.93;;;5.43;;
9986;SDS011;5033;46.310;11.214;2024-03-23T09:05:00;6.45;;;5.15;;
9986;SDS011;5033;46.310;11.214;2024-03-23T09:07:29;7.15;;;5.47;;
9986;SDS011;5033;46.310;11.214;2024-03-23T09:09:55;5.53;;;4.70;;
9986;SDS011;5033;46.310;11.214;2024-03-23T09:12:23;5.72;;;5.18;;
9986;SDS011;5033;46.310;11.214;2024-03-23T09:14:49;5.53;;;5.10;;
9986;SDS011;5033;46.310;11.214;2024-03-23T09:17:17;6.18;;;5.43;;
9986;SDS011;5033;46.310;11.214;2024-03-23T09:19:43;5.72;;;5.10;;
9986;SDS011;5033;46.310;11.214;2024-03-23T09:22:10;6.70;;;5.22;;
9986;SDS011;5033;46.310;11.214;2024-03-23T09:24:36;6.20;;;5.47;;
9986;SDS011;5033;46.310;11.214;2024-03-23T09:27:04;5.43;;;4.93;;
9986;SDS011;5033;46.310;11.214;2024-03-23T09:29:30;7.53;;;5.53;;
9986;SDS011;5033;46.310;11.214;2024-03-23T09:31:57;6.32;;;5.72;;
9986;SDS011;5033;46.310;11.214;2024-03-23T09:34:25;5.38;;;4.88;;
9986;SDS011;5033;46.310;11.214;2024-03-23T09:36:52;6.63;;;5.70;;
9986;SDS011;5033;46.310;11.214;2024-03-23T09:39:18;5.53;;;5.03;;
9986;SDS011;5033;46.310;11.214;2024-03-23T09:41:45;6.35;;;5.72;;
9986;SDS011;5033;46.310;11.214;2024-03-23T09:44:11;6.72;;;5.60;;
9986;SDS011;5033;46.310;11.214;2024-03-23T09:46:38;6.65;;;6.05;;
9986;SDS011;5033;46.310;11.214;2024-03-23T09:49:05;6.60;;;5.55;;
9986;SDS011;5033;46.310;11.214;2024-03-23T09:51:36;6.70;;;5.93;;
9986;SDS011;5033;46.310;11.214;2024-03-23T09:54:02;6.35;;;5.68;;
9986;SDS011;5033;46.310;11.214;2024-03-23T09:56:29;5.20;;;4.70;;
9986;SDS011;5033;46.310;11.214;2024-03-23T09:59:00;6.18;;;5.40;;
9986;SDS011;5033;46.310;11.214;2024-03-23T10:01:29;9.27;;;6.10;;
9986;SDS011;5033;46.310;11.214;2024-03-23T10:03:55;7.13;;;5.60;;
9986;SDS011;5033;46.310;11.214;2024-03-23T10:06:22;7.15;;;6.20;;
9986;SDS011;5033;46.310;11.214;2024-03-23T10:08:51;6.40;;;5.60;;
9986;SDS011;5033;46.310;11.214;2024-03-23T10:11:20;6.03;;;5.25;;
9986;SDS011;5033;46.310;11.214;2024-03-23T10:13:46;7.05;;;5.70;;
9986;SDS011;5033;46.310;11.214;2024-03-23T10:16:20;7.60;;;6.70;;
9986;SDS011;5033;46.310;11.214;2024-03-23T10:18:47;6.40;;;5.47;;
9986;SDS011;5033;46.310;11.214;2024-03-23T10:21:14;6.10;;;5.60;;
9986;SDS011;5033;46.310;11.214;2024-03-23T10:23:41;7.20;;;5.97;;
9986;SDS011;5033;46.310;11.214;2024-03-23T10:26:14;6.22;;;5.63;;
9986;SDS011;5033;46.310;11.214;2024-03-23T10:28:53;6.97;;;6.28;;
9986;SDS011;5033;46.310;11.214;2024-03-23T10:31:20;10.57;;;6.78;;
9986;SDS011;5033;46.310;11.214;2024-03-23T10:33:47;7.47;;;6.63;;
9986;SDS011;5033;46.310;11.214;2024-03-23T10:36:13;12.35;;;7.47;;
9986;SDS011;5033;46.310;11.214;2024-03-23T10:38:41;6.90;;;6.20;;
9986;SDS011;5033;46.310;11.214;2024-03-23T10:41:08;8.68;;;7.43;;
9986;SDS011;5033;46.310;11.214;2024-03-23T10:43:37;7.45;;;6.63;;
9986;SDS011;5033;46.310;11.214;2024-03-23T10:46:04;8.68;;;6.93;;
9986;SDS011;5033;46.310;11.214;2024-03-23T10:48:31;6.93;;;6.10;;
9986;SDS011;5033;46.310;11.214;2024-03-23T10:50:58;7.47;;;6.80;;
9986;SDS011;5033;46.310;11.214;2024-03-23T10:53:25;8.38;;;7.00;;
9986;SDS011;5033;46.310;11.214;2024-03-23T10:55:52;8.43;;;7.57;;
9986;SDS011;5033;46.310;11.214;2024-03-23T10:58:21;7.30;;;6.60;;
9986;SDS011;5033;46.310;11.214;2024-03-23T11:00:54;8.55;;;7.55;;
9986;SDS011;5033;46.310;11.214;2024-03-23T11:03:30;10.07;;;7.88;;
9986;SDS011;5033;46.310;11.214;2024-03-23T11:05:57;8.57;;;7.78;;
9986;SDS011;5033;46.310;11.214;2024-03-23T11:08:34;7.43;;;6.57;;
9986;SDS011;5033;46.310;11.214;2024-03-23T11:13:57;8.52;;;7.78;;
9986;SDS011;5033;46.310;11.214;2024-03-23T11:16:26;8.93;;;8.10;;
9986;SDS011;5033;46.310;11.214;2024-03-23T11:19:32;8.57;;;7.68;;
9986;SDS011;5033;46.310;11.214;2024-03-23T11:22:01;9.02;;;8.13;;
9986;SDS011;5033;46.310;11.214;2024-03-23T11:24:30;8.68;;;7.78;;
9986;SDS011;5033;46.310;11.214;2024-03-23T11:26:56;8.43;;;7.63;;
9986;SDS011;5033;46.310;11.214;2024-03-23T11:29:25;10.45;;;8.48;;
9986;SDS011;5033;46.310;11.214;2024-03-23T11:31:53;11.23;;;9.00;;
9986;SDS011;5033;46.310;11.214;2024-03-23T11:34:20;9.65;;;8.75;;
9986;SDS011;5033;46.310;11.214;2024-03-23T11:36:46;10.57;;;9.32;;
9986;SDS011;5033;46.310;11.214;2024-03-23T11:39:16;10.50;;;8.88;;
9986;SDS011;5033;46.310;11.214;2024-03-23T11:41:46;9.68;;;8.77;;
9986;SDS011;5033;46.310;11.214;2024-03-23T11:44:17;9.70;;;8.75;;
9986;SDS011;5033;46.310;11.214;2024-03-23T11:46:43;9.45;;;8.48;;
9986;SDS011;5033;46.310;11.214;2024-03-23T11:49:22;9.55;;;8.55;;
9986;SDS011;5033;46.310;11.214;2024-03-23T11:51:48;9.20;;;8.30;;
9986;SDS011;5033;46.310;11.214;2024-03-23T11:54:15;9.15;;;8.25;;
9986;SDS011;5033;46.310;11.214;2024-03-23T11:56:53;8.77;;;7.95;;
9986;SDS011;5033;46.310;11.214;2024-03-23T11:59:30;10.82;;;9.65;;
9986;SDS011;5033;46.310;11.214;2024-03-23T12:01:57;9.80;;;8.80;;
9986;SDS011;5033;46.310;11.214;2024-03-23T12:04:26;10.50;;;8.80;;
9986;SDS011;5033;46.310;11.214;2024-03-23T12:09:41;9.35;;;8.43;;
9986;SDS011;5033;46.310;11.214;2024-03-23T12:12:08;10.27;;;8.38;;
9986;SDS011;5033;46.310;11.214;2024-03-23T12:14:36;8.55;;;7.57;;
9986;SDS011;5033;46.310;11.214;2024-03-23T12:17:09;11.82;;;9.20;;
9986;SDS011;5033;46.310;11.214;2024-03-23T12:19:39;9.77;;;8.77;;
9986;SDS011;5033;46.310;11.214;2024-03-23T12:22:06;9.75;;;8.77;;
9986;SDS011;5033;46.310;11.214;2024-03-23T12:24:33;9.98;;;8.35;;
9986;SDS011;5033;46.310;11.214;2024-03-23T12:27:00;9.82;;;8.80;;
9986;SDS011;5033;46.310;11.214;2024-03-23T12:29:31;12.93;;;10.30;;
9986;SDS011;5033;46.310;11.214;2024-03-23T12:31:59;12.98;;;10.07;;
9986;SDS011;5033;46.310;11.214;2024-03-23T12:34:26;11.23;;;9.77;;
9986;SDS011;5033;46.310;11.214;2024-03-23T12:36:53;9.90;;;8.82;;
9986;SDS011;5033;46.310;11.214;2024-03-23T12:39:20;9.88;;;8.65;;
9986;SDS011;5033;46.310;11.214;2024-03-23T12:41:46;12.77;;;10.57;;
9986;SDS011;5033;46.310;11.214;2024-03-23T12:44:13;9.55;;;8.50;;
9986;SDS011;5033;46.310;11.214;2024-03-23T12:46:40;10.90;;;8.13;;
9986;SDS011;5033;46.310;11.214;2024-03-23T12:49:07;10.73;;;9.60;;
9986;SDS011;5033;46.310;11.214;2024-03-23T12:51:33;10.10;;;9.10;;
9986;SDS011;5033;46.310;11.214;2024-03-23T12:54:02;9.50;;;8.45;;
9986;SDS011;5033;46.310;11.214;2024-03-23T12:56:28;9.98;;;8.95;;
9986;SDS011;5033;46.310;11.214;2024-03-23T12:58:55;9.32;;;8.40;;
9986;SDS011;5033;46.310;11.214;2024-03-23T13:01:22;12.48;;;10.18;;
9986;SDS011;5033;46.310;11.214;2024-03-23T13:03:50;19.00;;;11.95;;
9986;SDS011;5033;46.310;11.214;2024-03-23T13:06:16;12.20;;;10.90;;
9986;SDS011;5033;46.310;11.214;2024-03-23T13:08:43;11.98;;;10.57;;
9986;SDS011;5033;46.310;11.214;2024-03-23T13:11:11;14.48;;;11.40;;
9986;SDS011;5033;46.310;11.214;2024-03-23T13:13:39;13.57;;;12.18;;
9986;SDS011;5033;46.310;11.214;2024-03-23T13:16:05;19.58;;;13.00;;
9986;SDS011;5033;46.310;11.214;2024-03-23T13:18:32;17.27;;;12.35;;
9986;SDS011;5033;46.310;11.214;2024-03-23T13:20:58;13.05;;;11.75;;
9986;SDS011;5033;46.310;11.214;2024-03-23T13:23:25;16.80;;;11.77;;
9986;SDS011;5033;46.310;11.214;2024-03-23T13:25:51;16.77;;;13.25;;
9986;SDS011;5033;46.310;11.214;2024-03-23T13:28:20;16.35;;;12.77;;
9986;SDS011;5033;46.310;11.214;2024-03-23T13:30:50;16.00;;;13.85;;
9986;SDS011;5033;46.310;11.214;2024-03-23T13:33:18;18.60;;;13.38;;
9986;SDS011;5033;46.310;11.214;2024-03-23T13:35:50;18.55;;;13.38;;
9986;SDS011;5033;46.310;11.214;2024-03-23T13:38:17;16.23;;;13.60;;
9986;SDS011;5033;46.310;11.214;2024-03-23T13:40:50;15.13;;;13.45;;
9986;SDS011;5033;46.310;11.214;2024-03-23T13:43:18;18.08;;;14.77;;
9986;SDS011;5033;46.310;11.214;2024-03-23T13:45:46;18.13;;;14.85;;
9986;SDS011;5033;46.310;11.214;2024-03-23T13:48:15;15.73;;;12.63;;
9986;SDS011;5033;46.310;11.214;2024-03-23T13:50:41;15.80;;;13.70;;
9986;SDS011;5033;46.310;11.214;2024-03-23T13:53:08;17.75;;;13.60;;
9986;SDS011;5033;46.310;11.214;2024-03-23T13:55:34;15.57;;;13.88;;
9986;SDS011;5033;46.310;11.214;2024-03-23T13:58:01;19.05;;;14.25;;
9986;SDS011;5033;46.310;11.214;2024-03-23T14:00:27;17.05;;;13.48;;
9986;SDS011;5033;46.310;11.214;2024-03-23T14:02:55;17.92;;;15.02;;
9986;SDS011;5033;46.310;11.214;2024-03-23T14:05:21;16.55;;;14.10;;
9986;SDS011;5033;46.310;11.214;2024-03-23T14:07:50;17.67;;;14.25;;
9986;SDS011;5033;46.310;11.214;2024-03-23T14:10:16;18.58;;;14.65;;
9986;SDS011;5033;46.310;11.214;2024-03-23T14:12:43;14.85;;;13.25;;
9986;SDS011;5033;46.310;11.214;2024-03-23T14:15:09;16.08;;;12.65;;
9986;SDS011;5033;46.310;11.214;2024-03-23T14:17:36;18.25;;;16.15;;
9986;SDS011;5033;46.310;11.214;2024-03-23T14:20:03;15.43;;;13.63;;
9986;SDS011;5033;46.310;11.214;2024-03-23T14:22:31;17.02;;;14.07;;
9986;SDS011;5033;46.310;11.214;2024-03-23T14:24:57;19.60;;;15.68;;
9986;SDS011;5033;46.310;11.214;2024-03-23T14:27:24;19.98;;;15.52;;
9986;SDS011;5033;46.310;11.214;2024-03-23T14:29:50;20.77;;;15.35;;
9986;SDS011;5033;46.310;11.214;2024-03-23T14:32:17;18.60;;;13.98;;
9986;SDS011;5033;46.310;11.214;2024-03-23T14:34:43;17.58;;;15.68;;
9986;SDS011;5033;46.310;11.214;2024-03-23T14:37:11;17.13;;;14.23;;
9986;SDS011;5033;46.310;11.214;2024-03-23T14:39:37;20.55;;;14.60;;
9986;SDS011;5033;46.310;11.214;2024-03-23T14:42:06;7.63;;;3.80;;
9986;SDS011;5033;46.310;11.214;2024-03-23T14:44:33;2.10;;;1.90;;
9986;SDS011;5033;46.310;11.214;2024-03-23T14:47:00;2.35;;;2.03;;
9986;SDS011;5033;46.310;11.214;2024-03-23T14:49:26;2.10;;;1.90;;
9986;SDS011;5033;46.310;11.214;2024-03-23T14:51:53;1.80;;;1.70;;
9986;SDS011;5033;46.310;11.214;2024-03-23T14:54:20;1.58;;;1.48;;
9986;SDS011;5033;46.310;11.214;2024-03-23T14:56:47;1.35;;;1.35;;
9986;SDS011;5033;46.310;11.214;2024-03-23T14:59:13;1.58;;;1.48;;
9986;SDS011;5033;46.310;11.214;2024-03-23T15:01:40;1.75;;;1.58;;
9986;SDS011;5033;46.310;11.214;2024-03-23T15:04:06;2.85;;;2.60;;
9986;SDS011;5033;46.310;11.214;2024-03-23T15:06:33;3.15;;;2.95;;
9986;SDS011;5033;46.310;11.214;2024-03-23T15:08:59;3.67;;;3.38;;
9986;SDS011;5033;46.310;11.214;2024-03-23T15:11:28;5.15;;;3.67;;
9986;SDS011;5033;46.310;11.214;2024-03-23T15:13:54;2.75;;;2.55;;
9986;SDS011;5033;46.310;11.214;2024-03-23T15:16:21;2.60;;;2.40;;
9986;SDS011;5033;46.310;11.214;2024-03-23T15:18:47;3.17;;;2.95;;
9986;SDS011;5033;46.310;11.214;2024-03-23T15:21:14;3.35;;;3.05;;
9986;SDS011;5033;46.310;11.214;2024-03-23T15:23:45;2.33;;;2.20;;
9986;SDS011;5033;46.310;11.214;2024-03-23T15:26:12;2.25;;;2.15;;
9986;SDS011;5033;46.310;11.214;2024-03-23T15:28:40;1.90;;;1.80;;
9986;SDS011;5033;46.310;11.214;2024-03-23T15:31:27;2.60;;;2.40;;
9986;SDS011;5033;46.310;11.214;2024-03-23T15:33:54;2.15;;;1.95;;
9986;SDS011;5033;46.310;11.214;2024-03-23T15:36:21;1.85;;;1.75;;
9986;SDS011;5033;46.310;11.214;2024-03-23T15:38:47;1.95;;;1.85;;
9986;SDS011;5033;46.310;11.214;2024-03-23T15:41:14;1.92;;;1.83;;
9986;SDS011;5033;46.310;11.214;2024-03-23T15:43:41;2.72;;;1.92;;
9986;SDS011;5033;46.310;11.214;2024-03-23T15:46:08;2.08;;;1.83;;
9986;SDS011;5033;46.310;11.214;2024-03-23T15:48:35;2.08;;;1.98;;
9986;SDS011;5033;46.310;11.214;2024-03-23T15:51:03;2.00;;;1.90;;
9986;SDS011;5033;46.310;11.214;2024-03-23T15:53:29;1.85;;;1.75;;
9986;SDS011;5033;46.310;11.214;2024-03-23T15:55:57;5.07;;;3.85;;
9986;SDS011;5033;46.310;11.214;2024-03-23T15:58:24;2.78;;;2.58;;